Chicago, Illinois
Traffic Map
Current Weather Conditions
Chicago, Illinois
Overcast Light Snow
Overcast
34°
Feels Like: 27°
Wind Chill: 27° Ceiling: 600
Heat Index: 34° Visibility: 4mi
Dew Point: 33° Wind: 9mph
Humidity: 96% Direction: 320° (NW)
Pressure: 29.77in Gusts: 0mph
Raw Report DataKMDW 120053Z 32008KT 4SM -SN BR BKN006 BKN032 OVC055 01/01 A2977 RMK AO2 SLP091 SNINCR 1/1 P0003 T00110006
Traffic Incident Summary
Active as of:
Severity:
Category:
InformationThere was an issue retrieving the traffic information for this location. Please try a different location or try again shortly.
Advertisements